Warwood, West Virginia
Current Conditions -  °F | °C
As of 9:53 PM on Wednesday 22 Oct 2014 (Local Time) from KHLG Reporting Station
Overcast Overcast  
Wind Chill: 42°   Ceiling: 2300
Heat Index: 47°   Visibility: 10mi
Dew Point: 40°   Wind: 12mph
Humidity: 77%   Direction: 350°N
Pressure: 30.2"   Gusts: NA
Location:  40.0729°N, 80.6524°W
Report Text: KHLG 230153Z 35010KT 10SM OVC023 08/04 A3020 RMK AO2 SLP233 T00830044
Loading
Personal Weather Stations






























Interactive Weather Map
Tropical Storm Tracking
New forecast layout! Learn more

10-Day Weather Forecast

Advertisements
Track Severe Weather on mobile